sensor_id;sensor_type;location;lat;lon;timestamp;pressure;altitude;pressure_sealevel;temperature;humidity
83896;BME280;74045;42.812;74.638;2024-01-25T00:01:12;90892.03;;;1.67;58.40
83896;BME280;74045;42.812;74.638;2024-01-25T00:03:38;90829.28;;;1.19;58.45
83896;BME280;74045;42.812;74.638;2024-01-25T00:06:07;90899.44;;;1.65;58.61
83896;BME280;74045;42.812;74.638;2024-01-25T00:08:33;90887.53;;;1.64;58.73
83896;BME280;74045;42.812;74.638;2024-01-25T00:11:01;90895.75;;;1.66;58.79
83896;BME280;74045;42.812;74.638;2024-01-25T00:13:27;90892.75;;;1.64;59.18
83896;BME280;74045;42.812;74.638;2024-01-25T00:15:52;90796.28;;;1.00;59.08
83896;BME280;74045;42.812;74.638;2024-01-25T00:18:18;90839.47;;;1.31;59.50
83896;BME280;74045;42.812;74.638;2024-01-25T00:20:44;90885.66;;;1.61;58.76
83896;BME280;74045;42.812;74.638;2024-01-25T00:23:09;90883.03;;;1.61;59.37
83896;BME280;74045;42.812;74.638;2024-01-25T00:25:35;90887.09;;;1.59;58.87
83896;BME280;74045;42.812;74.638;2024-01-25T00:28:01;90883.38;;;1.60;58.85
83896;BME280;74045;42.812;74.638;2024-01-25T00:30:26;90866.53;;;1.50;58.54
83896;BME280;74045;42.812;74.638;2024-01-25T00:32:52;90880.03;;;1.59;58.91
83896;BME280;74045;42.812;74.638;2024-01-25T00:35:18;90876.97;;;1.53;58.69
83896;BME280;74045;42.812;74.638;2024-01-25T00:37:44;90884.75;;;1.50;59.04
83896;BME280;74045;42.812;74.638;2024-01-25T00:40:10;90858.22;;;1.41;58.44
83896;BME280;74045;42.812;74.638;2024-01-25T00:42:43;90783.53;;;0.92;59.56
83896;BME280;74045;42.812;74.638;2024-01-25T00:45:10;90885.19;;;1.55;58.43
83896;BME280;74045;42.812;74.638;2024-01-25T00:47:37;90875.53;;;1.56;58.85
83896;BME280;74045;42.812;74.638;2024-01-25T00:50:04;90886.66;;;1.53;58.74
83896;BME280;74045;42.812;74.638;2024-01-25T00:52:30;90854.56;;;1.45;58.24
83896;BME280;74045;42.812;74.638;2024-01-25T00:54:56;90870.44;;;1.63;58.59
83896;BME280;74045;42.812;74.638;2024-01-25T00:57:22;90880.09;;;1.63;58.45
83896;BME280;74045;42.812;74.638;2024-01-25T00:59:48;90856.81;;;1.47;58.32
83896;BME280;74045;42.812;74.638;2024-01-25T01:02:14;90855.00;;;1.51;58.14
83896;BME280;74045;42.812;74.638;2024-01-25T01:04:40;90787.50;;;1.08;58.62
83896;BME280;74045;42.812;74.638;2024-01-25T01:07:06;90863.63;;;1.55;58.85
83896;BME280;74045;42.812;74.638;2024-01-25T01:09:32;90789.75;;;1.10;59.16
83896;BME280;74045;42.812;74.638;2024-01-25T01:11:59;90865.94;;;1.60;58.71
83896;BME280;74045;42.812;74.638;2024-01-25T01:14:24;90875.13;;;1.54;58.41
83896;BME280;74045;42.812;74.638;2024-01-25T01:16:50;90867.00;;;1.59;59.03
83896;BME280;74045;42.812;74.638;2024-01-25T01:19:16;90846.41;;;1.47;59.61
83896;BME280;74045;42.812;74.638;2024-01-25T01:21:42;90862.50;;;1.56;58.55
83896;BME280;74045;42.812;74.638;2024-01-25T01:24:10;90853.91;;;1.52;59.02
83896;BME280;74045;42.812;74.638;2024-01-25T01:26:36;90812.25;;;1.25;59.96
83896;BME280;74045;42.812;74.638;2024-01-25T01:29:02;90859.13;;;1.52;59.10
83896;BME280;74045;42.812;74.638;2024-01-25T01:31:28;90841.41;;;1.34;59.20
83896;BME280;74045;42.812;74.638;2024-01-25T01:33:54;90864.25;;;1.48;59.23
83896;BME280;74045;42.812;74.638;2024-01-25T01:36:20;90854.50;;;1.42;58.81
83896;BME280;74045;42.812;74.638;2024-01-25T01:38:46;90875.31;;;1.42;59.09
83896;BME280;74045;42.812;74.638;2024-01-25T01:41:11;90840.25;;;1.32;59.68
83896;BME280;74045;42.812;74.638;2024-01-25T01:43:38;90857.50;;;1.44;59.11
83896;BME280;74045;42.812;74.638;2024-01-25T01:46:10;90857.09;;;1.42;58.95
83896;BME280;74045;42.812;74.638;2024-01-25T01:48:39;90794.81;;;0.99;59.74
83896;BME280;74045;42.812;74.638;2024-01-25T01:51:06;90858.94;;;1.38;58.54
83896;BME280;74045;42.812;74.638;2024-01-25T01:53:36;90855.22;;;1.39;58.93
83896;BME280;74045;42.812;74.638;2024-01-25T01:56:02;90848.50;;;1.38;58.63
83896;BME280;74045;42.812;74.638;2024-01-25T01:58:28;90829.00;;;1.24;59.02
83896;BME280;74045;42.812;74.638;2024-01-25T02:00:55;90780.25;;;0.95;59.38
83896;BME280;74045;42.812;74.638;2024-01-25T02:03:22;90851.50;;;1.40;60.25
83896;BME280;74045;42.812;74.638;2024-01-25T02:05:47;90785.44;;;0.95;59.93
83896;BME280;74045;42.812;74.638;2024-01-25T02:08:14;90835.69;;;1.25;60.13
83896;BME280;74045;42.812;74.638;2024-01-25T02:10:40;90813.91;;;1.10;60.95
83896;BME280;74045;42.812;74.638;2024-01-25T02:13:06;90852.91;;;1.33;60.79
83896;BME280;74045;42.812;74.638;2024-01-25T02:15:31;90842.41;;;1.26;60.32
83896;BME280;74045;42.812;74.638;2024-01-25T02:17:57;90848.41;;;1.30;60.97
83896;BME280;74045;42.812;74.638;2024-01-25T02:20:23;90650.28;;;-0.05;61.08
83896;BME280;74045;42.812;74.638;2024-01-25T02:22:49;90848.69;;;1.25;61.11
83896;BME280;74045;42.812;74.638;2024-01-25T02:25:14;90850.50;;;1.21;60.88
83896;BME280;74045;42.812;74.638;2024-01-25T02:27:40;90859.38;;;1.20;60.37
83896;BME280;74045;42.812;74.638;2024-01-25T02:30:06;90678.13;;;-0.05;60.62
83896;BME280;74045;42.812;74.638;2024-01-25T02:32:33;90827.22;;;1.05;60.39
83896;BME280;74045;42.812;74.638;2024-01-25T02:34:58;90853.81;;;1.18;60.78
83896;BME280;74045;42.812;74.638;2024-01-25T02:37:24;90859.00;;;1.18;60.12
83896;BME280;74045;42.812;74.638;2024-01-25T02:39:50;90848.53;;;1.15;61.14
83896;BME280;74045;42.812;74.638;2024-01-25T02:42:16;90859.81;;;1.22;60.44
83896;BME280;74045;42.812;74.638;2024-01-25T02:44:43;90856.50;;;1.25;60.62
83896;BME280;74045;42.812;74.638;2024-01-25T02:47:09;90846.78;;;1.22;61.42
83896;BME280;74045;42.812;74.638;2024-01-25T02:49:35;90774.75;;;0.73;61.21
83896;BME280;74045;42.812;74.638;2024-01-25T02:52:01;90844.47;;;1.17;60.98
83896;BME280;74045;42.812;74.638;2024-01-25T02:54:27;90774.66;;;0.70;60.89
83896;BME280;74045;42.812;74.638;2024-01-25T02:56:53;90852.69;;;1.19;60.95
83896;BME280;74045;42.812;74.638;2024-01-25T02:59:18;90854.59;;;1.22;61.15
83896;BME280;74045;42.812;74.638;2024-01-25T03:01:44;90853.09;;;1.21;60.89
83896;BME280;74045;42.812;74.638;2024-01-25T03:04:11;90847.59;;;1.26;60.15
83896;BME280;74045;42.812;74.638;2024-01-25T03:06:37;90840.28;;;1.36;60.29
83896;BME280;74045;42.812;74.638;2024-01-25T03:09:03;90842.66;;;1.44;59.59
83896;BME280;74045;42.812;74.638;2024-01-25T03:11:32;90832.69;;;1.50;59.23
83896;BME280;74045;42.812;74.638;2024-01-25T03:13:57;90811.31;;;1.37;59.59
83896;BME280;74045;42.812;74.638;2024-01-25T03:16:23;90821.25;;;1.58;58.96
83896;BME280;74045;42.812;74.638;2024-01-25T03:18:49;90831.16;;;1.75;59.28
83896;BME280;74045;42.812;74.638;2024-01-25T03:21:15;90827.47;;;1.76;59.22
83896;BME280;74045;42.812;74.638;2024-01-25T03:23:40;90833.16;;;1.86;58.80
83896;BME280;74045;42.812;74.638;2024-01-25T03:26:06;90826.47;;;1.88;59.14
83896;BME280;74045;42.812;74.638;2024-01-25T03:28:34;90823.13;;;1.88;59.85
83896;BME280;74045;42.812;74.638;2024-01-25T03:31:00;90825.13;;;2.01;58.75
83896;BME280;74045;42.812;74.638;2024-01-25T03:33:25;90813.63;;;2.03;58.74
83896;BME280;74045;42.812;74.638;2024-01-25T03:35:53;90806.25;;;2.08;58.47
83896;BME280;74045;42.812;74.638;2024-01-25T03:38:19;90820.91;;;2.23;57.77
83896;BME280;74045;42.812;74.638;2024-01-25T03:40:45;90729.25;;;1.77;57.31
83896;BME280;74045;42.812;74.638;2024-01-25T03:43:10;90806.63;;;2.44;57.02
83896;BME280;74045;42.812;74.638;2024-01-25T03:45:36;90816.47;;;2.61;56.70
83896;BME280;74045;42.812;74.638;2024-01-25T03:48:02;90805.34;;;2.72;56.42
83896;BME280;74045;42.812;74.638;2024-01-25T03:50:27;90798.72;;;2.78;56.32
83896;BME280;74045;42.812;74.638;2024-01-25T03:52:53;90815.97;;;2.93;57.17
83896;BME280;74045;42.812;74.638;2024-01-25T03:55:19;90801.47;;;2.99;55.50
83896;BME280;74045;42.812;74.638;2024-01-25T03:57:45;90720.25;;;2.49;55.75
83896;BME280;74045;42.812;74.638;2024-01-25T04:00:11;90791.50;;;3.08;55.27
83896;BME280;74045;42.812;74.638;2024-01-25T04:02:37;90800.53;;;3.22;55.54
83896;BME280;74045;42.812;74.638;2024-01-25T04:05:04;90780.44;;;3.29;55.14
83896;BME280;74045;42.812;74.638;2024-01-25T04:07:30;90785.03;;;3.47;55.24
83896;BME280;74045;42.812;74.638;2024-01-25T04:09:56;90785.09;;;3.57;55.09
83896;BME280;74045;42.812;74.638;2024-01-25T04:12:21;90760.44;;;3.51;55.02
83896;BME280;74045;42.812;74.638;2024-01-25T04:14:47;90693.88;;;3.17;54.96
83896;BME280;74045;42.812;74.638;2024-01-25T04:17:13;90769.91;;;3.85;55.61
83896;BME280;74045;42.812;74.638;2024-01-25T04:19:38;90783.03;;;4.02;55.14
83896;BME280;74045;42.812;74.638;2024-01-25T04:22:04;90709.75;;;3.67;55.29
83896;BME280;74045;42.812;74.638;2024-01-25T04:24:29;90745.72;;;3.98;55.22
83896;BME280;74045;42.812;74.638;2024-01-25T04:26:55;90772.66;;;4.31;54.69
83896;BME280;74045;42.812;74.638;2024-01-25T04:29:22;90773.09;;;4.44;54.51
83896;BME280;74045;42.812;74.638;2024-01-25T04:31:47;90776.06;;;4.53;54.50
83896;BME280;74045;42.812;74.638;2024-01-25T04:34:14;90769.75;;;4.58;54.42
83896;BME280;74045;42.812;74.638;2024-01-25T04:36:40;90747.31;;;4.64;54.02
83896;BME280;74045;42.812;74.638;2024-01-25T04:39:06;90766.41;;;4.86;53.29
83896;BME280;74045;42.812;74.638;2024-01-25T04:41:31;90681.53;;;4.47;52.96
83896;BME280;74045;42.812;74.638;2024-01-25T04:43:57;90736.50;;;4.94;53.05
83896;BME280;74045;42.812;74.638;2024-01-25T04:46:23;90766.03;;;5.20;52.46
83896;BME280;74045;42.812;74.638;2024-01-25T04:48:48;90763.00;;;5.28;52.06
83896;BME280;74045;42.812;74.638;2024-01-25T04:51:18;90687.88;;;4.97;51.76
83896;BME280;74045;42.812;74.638;2024-01-25T04:53:44;90753.22;;;5.54;51.72
83896;BME280;74045;42.812;74.638;2024-01-25T04:56:10;90702.78;;;5.28;51.72
83896;BME280;74045;42.812;74.638;2024-01-25T04:58:36;90670.28;;;5.19;50.93
83896;BME280;74045;42.812;74.638;2024-01-25T05:01:01;90732.25;;;5.72;51.30
83896;BME280;74045;42.812;74.638;2024-01-25T05:03:27;90748.63;;;5.90;51.16
83896;BME280;74045;42.812;74.638;2024-01-25T05:05:52;90758.38;;;5.97;50.48
83896;BME280;74045;42.812;74.638;2024-01-25T05:08:18;90749.00;;;6.03;50.74
83896;BME280;74045;42.812;74.638;2024-01-25T05:10:44;90751.94;;;6.12;50.21
83896;BME280;74045;42.812;74.638;2024-01-25T05:13:10;90745.53;;;6.20;49.49
83896;BME280;74045;42.812;74.638;2024-01-25T05:15:35;90741.00;;;6.28;49.21
83896;BME280;74045;42.812;74.638;2024-01-25T05:18:02;90667.78;;;5.81;49.39
83896;BME280;74045;42.812;74.638;2024-01-25T05:20:27;90693.88;;;6.10;49.33
83896;BME280;74045;42.812;74.638;2024-01-25T05:23:04;90743.13;;;6.51;48.39
83896;BME280;74045;42.812;74.638;2024-01-25T05:25:31;90748.34;;;6.58;48.75
83896;BME280;74045;42.812;74.638;2024-01-25T05:27:57;90740.06;;;6.60;48.65
83896;BME280;74045;42.812;74.638;2024-01-25T05:30:23;90670.63;;;6.19;48.46
83896;BME280;74045;42.812;74.638;2024-01-25T05:32:49;90735.53;;;6.67;48.27
83896;BME280;74045;42.812;74.638;2024-01-25T05:35:16;90741.81;;;6.77;48.41
83896;BME280;74045;42.812;74.638;2024-01-25T05:37:42;90736.91;;;6.83;48.38
83896;BME280;74045;42.812;74.638;2024-01-25T05:40:08;90717.09;;;6.75;47.59
83896;BME280;74045;42.812;74.638;2024-01-25T05:42:35;90732.72;;;6.89;47.45
83896;BME280;74045;42.812;74.638;2024-01-25T05:45:02;90727.84;;;6.91;47.36
83896;BME280;74045;42.812;74.638;2024-01-25T05:47:30;90724.03;;;6.99;47.36
83896;BME280;74045;42.812;74.638;2024-01-25T05:49:56;90725.47;;;7.07;47.26
83896;BME280;74045;42.812;74.638;2024-01-25T05:52:22;90673.97;;;6.76;47.09
83896;BME280;74045;42.812;74.638;2024-01-25T05:54:52;90730.63;;;7.18;47.00
83896;BME280;74045;42.812;74.638;2024-01-25T05:57:18;90720.09;;;7.22;46.99
83896;BME280;74045;42.812;74.638;2024-01-25T05:59:44;90722.31;;;7.27;46.77
83896;BME280;74045;42.812;74.638;2024-01-25T06:02:10;90708.03;;;7.28;46.46
83896;BME280;74045;42.812;74.638;2024-01-25T06:04:36;90696.81;;;7.24;46.10
83896;BME280;74045;42.812;74.638;2024-01-25T06:07:03;90710.59;;;7.35;46.57
83896;BME280;74045;42.812;74.638;2024-01-25T06:09:28;90706.41;;;7.41;46.18
83896;BME280;74045;42.812;74.638;2024-01-25T06:11:54;90701.88;;;7.45;45.96
83896;BME280;74045;42.812;74.638;2024-01-25T06:14:20;90700.69;;;7.50;45.92
83896;BME280;74045;42.812;74.638;2024-01-25T06:16:46;90699.88;;;7.56;45.86
83896;BME280;74045;42.812;74.638;2024-01-25T06:19:11;90696.78;;;7.61;45.54
83896;BME280;74045;42.812;74.638;2024-01-25T06:21:37;90689.53;;;7.73;45.78
83896;BME280;74045;42.812;74.638;2024-01-25T06:24:06;90689.47;;;7.80;45.81
83896;BME280;74045;42.812;74.638;2024-01-25T06:26:32;90668.06;;;7.78;45.73
83896;BME280;74045;42.812;74.638;2024-01-25T06:28:59;90681.84;;;7.89;45.64
83896;BME280;74045;42.812;74.638;2024-01-25T06:31:25;90676.94;;;7.91;46.32
83896;BME280;74045;42.812;74.638;2024-01-25T06:33:51;90667.16;;;7.92;46.19
83896;BME280;74045;42.812;74.638;2024-01-25T06:36:21;90674.59;;;7.97;46.22
83896;BME280;74045;42.812;74.638;2024-01-25T06:38:47;90659.22;;;7.95;46.12
83896;BME280;74045;42.812;74.638;2024-01-25T06:41:13;90647.16;;;7.98;45.89
83896;BME280;74045;42.812;74.638;2024-01-25T06:43:39;90661.69;;;8.10;46.05
83896;BME280;74045;42.812;74.638;2024-01-25T06:46:06;90605.31;;;7.80;45.76
83896;BME280;74045;42.812;74.638;2024-01-25T06:48:32;90570.28;;;7.59;45.87
83896;BME280;74045;42.812;74.638;2024-01-25T06:50:58;90649.94;;;8.18;45.88
83896;BME280;74045;42.812;74.638;2024-01-25T06:53:24;90643.06;;;8.24;46.06
83896;BME280;74045;42.812;74.638;2024-01-25T06:55:49;90647.53;;;8.27;46.44
83896;BME280;74045;42.812;74.638;2024-01-25T06:58:15;90644.50;;;8.28;45.97
83896;BME280;74045;42.812;74.638;2024-01-25T07:00:41;90632.44;;;8.31;46.08
83896;BME280;74045;42.812;74.638;2024-01-25T07:03:08;90621.91;;;8.31;45.79
83896;BME280;74045;42.812;74.638;2024-01-25T07:05:34;90617.66;;;8.37;46.11
83896;BME280;74045;42.812;74.638;2024-01-25T07:08:01;90610.53;;;8.38;45.76
83896;BME280;74045;42.812;74.638;2024-01-25T07:10:27;90612.06;;;8.39;45.89
83896;BME280;74045;42.812;74.638;2024-01-25T07:12:53;90467.63;;;7.43;45.69
83896;BME280;74045;42.812;74.638;2024-01-25T07:15:19;90547.88;;;8.05;46.12
83896;BME280;74045;42.812;74.638;2024-01-25T07:17:45;90604.72;;;8.50;46.06
83896;BME280;74045;42.812;74.638;2024-01-25T07:20:11;90587.84;;;8.47;46.61
83896;BME280;74045;42.812;74.638;2024-01-25T07:22:37;90600.44;;;8.60;46.27
83896;BME280;74045;42.812;74.638;2024-01-25T07:25:03;90593.69;;;8.59;46.06
83896;BME280;74045;42.812;74.638;2024-01-25T07:27:29;90591.28;;;8.68;46.22
83896;BME280;74045;42.812;74.638;2024-01-25T07:29:55;90589.34;;;8.72;47.51
83896;BME280;74045;42.812;74.638;2024-01-25T07:32:21;90583.72;;;8.70;47.97
83896;BME280;74045;42.812;74.638;2024-01-25T07:34:46;90558.38;;;8.56;48.37
83896;BME280;74045;42.812;74.638;2024-01-25T07:37:15;90558.78;;;8.55;48.77
83896;BME280;74045;42.812;74.638;2024-01-25T07:39:41;90499.03;;;8.04;49.07
83896;BME280;74045;42.812;74.638;2024-01-25T07:42:07;90568.28;;;8.48;49.19
83896;BME280;74045;42.812;74.638;2024-01-25T07:44:32;90500.22;;;8.00;48.83
83896;BME280;74045;42.812;74.638;2024-01-25T07:46:58;90552.06;;;8.26;49.14
83896;BME280;74045;42.812;74.638;2024-01-25T07:49:25;90571.38;;;8.43;49.25
83896;BME280;74045;42.812;74.638;2024-01-25T07:51:51;90563.13;;;8.41;49.52
83896;BME280;74045;42.812;74.638;2024-01-25T07:54:17;90551.13;;;8.40;49.01
83896;BME280;74045;42.812;74.638;2024-01-25T07:56:42;90518.38;;;8.18;48.89
83896;BME280;74045;42.812;74.638;2024-01-25T07:59:08;90491.25;;;7.97;49.14
83896;BME280;74045;42.812;74.638;2024-01-25T08:01:34;90551.06;;;8.44;49.17
83896;BME280;74045;42.812;74.638;2024-01-25T08:03:59;90536.09;;;8.37;49.20
83896;BME280;74045;42.812;74.638;2024-01-25T08:06:25;90455.75;;;7.85;49.35
83896;BME280;74045;42.812;74.638;2024-01-25T08:08:54;90554.56;;;8.61;49.41
83896;BME280;74045;42.812;74.638;2024-01-25T08:11:20;90480.03;;;8.17;49.31
83896;BME280;74045;42.812;74.638;2024-01-25T08:13:46;90550.97;;;8.71;49.16
83896;BME280;74045;42.812;74.638;2024-01-25T08:16:13;90544.59;;;8.72;48.90
83896;BME280;74045;42.812;74.638;2024-01-25T08:18:41;90543.66;;;8.82;49.25
83896;BME280;74045;42.812;74.638;2024-01-25T08:21:11;90544.31;;;8.86;49.53
83896;BME280;74045;42.812;74.638;2024-01-25T08:23:36;90479.59;;;8.45;49.29
83896;BME280;74045;42.812;74.638;2024-01-25T08:26:02;90543.44;;;8.93;49.01
83896;BME280;74045;42.812;74.638;2024-01-25T08:28:29;90534.34;;;8.98;48.96
83896;BME280;74045;42.812;74.638;2024-01-25T08:30:54;90554.59;;;9.01;48.94
83896;BME280;74045;42.812;74.638;2024-01-25T08:33:20;90554.69;;;8.97;49.03
83896;BME280;74045;42.812;74.638;2024-01-25T08:35:46;90538.59;;;8.91;48.94
83896;BME280;74045;42.812;74.638;2024-01-25T08:38:11;90550.03;;;9.05;49.20
83896;BME280;74045;42.812;74.638;2024-01-25T08:40:37;90549.25;;;9.04;48.89
83896;BME280;74045;42.812;74.638;2024-01-25T08:43:04;90553.44;;;9.02;48.42
83896;BME280;74045;42.812;74.638;2024-01-25T08:45:30;90536.06;;;8.84;48.67
83896;BME280;74045;42.812;74.638;2024-01-25T08:47:55;90529.19;;;8.90;48.92
83896;BME280;74045;42.812;74.638;2024-01-25T08:50:22;90471.38;;;8.43;49.19
83896;BME280;74045;42.812;74.638;2024-01-25T08:52:48;90540.22;;;8.85;48.53
83896;BME280;74045;42.812;74.638;2024-01-25T08:55:14;90539.13;;;8.83;48.32
83896;BME280;74045;42.812;74.638;2024-01-25T08:57:40;90529.41;;;8.80;48.55
83896;BME280;74045;42.812;74.638;2024-01-25T09:00:06;90546.63;;;8.84;48.86
83896;BME280;74045;42.812;74.638;2024-01-25T09:02:38;90530.25;;;8.73;49.81
83896;BME280;74045;42.812;74.638;2024-01-25T09:05:05;90490.53;;;8.44;49.99
83896;BME280;74045;42.812;74.638;2024-01-25T09:07:31;90544.44;;;8.79;50.00
83896;BME280;74045;42.812;74.638;2024-01-25T09:09:57;90551.06;;;8.87;49.83
83896;BME280;74045;42.812;74.638;2024-01-25T09:12:23;90523.50;;;8.72;49.82
83896;BME280;74045;42.812;74.638;2024-01-25T09:14:49;90549.78;;;8.95;49.93
83896;BME280;74045;42.812;74.638;2024-01-25T09:17:14;90562.16;;;8.99;50.21
83896;BME280;74045;42.812;74.638;2024-01-25T09:19:47;90548.84;;;8.86;50.22
83896;BME280;74045;42.812;74.638;2024-01-25T09:22:13;90554.06;;;8.89;50.25
83896;BME280;74045;42.812;74.638;2024-01-25T09:24:41;90516.75;;;8.71;50.65
83896;BME280;74045;42.812;74.638;2024-01-25T09:27:07;90571.41;;;9.07;50.86
83896;BME280;74045;42.812;74.638;2024-01-25T09:29:33;90572.94;;;9.08;51.04
83896;BME280;74045;42.812;74.638;2024-01-25T09:31:59;90567.31;;;9.06;50.72
83896;BME280;74045;42.812;74.638;2024-01-25T09:34:24;90572.38;;;8.96;51.12
83896;BME280;74045;42.812;74.638;2024-01-25T09:36:51;90579.59;;;8.92;51.33
83896;BME280;74045;42.812;74.638;2024-01-25T09:39:17;90520.31;;;8.37;51.61
83896;BME280;74045;42.812;74.638;2024-01-25T09:41:43;90599.53;;;8.70;51.88
83896;BME280;74045;42.812;74.638;2024-01-25T09:44:09;90592.88;;;8.62;52.10
83896;BME280;74045;42.812;74.638;2024-01-25T09:46:35;90586.66;;;8.52;52.25
83896;BME280;74045;42.812;74.638;2024-01-25T09:49:04;90592.47;;;8.40;52.11
83896;BME280;74045;42.812;74.638;2024-01-25T09:51:36;90601.53;;;8.39;52.26
83896;BME280;74045;42.812;74.638;2024-01-25T09:54:04;90600.13;;;8.30;52.09
83896;BME280;74045;42.812;74.638;2024-01-25T09:56:32;90590.59;;;8.13;52.70
83896;BME280;74045;42.812;74.638;2024-01-25T09:58:58;90608.88;;;8.24;51.91
83896;BME280;74045;42.812;74.638;2024-01-25T10:01:24;90611.53;;;8.20;52.31
83896;BME280;74045;42.812;74.638;2024-01-25T10:03:50;90607.13;;;8.14;52.36
83896;BME280;74045;42.812;74.638;2024-01-25T10:06:16;90619.25;;;8.07;52.68
83896;BME280;74045;42.812;74.638;2024-01-25T10:08:42;90611.88;;;7.95;52.33
83896;BME280;74045;42.812;74.638;2024-01-25T10:11:08;90632.22;;;7.91;52.48
83896;BME280;74045;42.812;74.638;2024-01-25T10:13:47;90626.97;;;7.91;52.30
83896;BME280;74045;42.812;74.638;2024-01-25T10:16:17;90627.84;;;7.81;52.25
83896;BME280;74045;42.812;74.638;2024-01-25T10:22:06;90606.38;;;7.55;51.13
83896;BME280;74045;42.812;74.638;2024-01-25T10:24:34;90610.19;;;7.51;51.27
83896;BME280;74045;42.812;74.638;2024-01-25T10:27:00;90608.69;;;7.50;51.36
83896;BME280;74045;42.812;74.638;2024-01-25T10:29:26;90613.94;;;7.50;51.46
83896;BME280;74045;42.812;74.638;2024-01-25T10:31:51;90605.88;;;7.33;50.97
83896;BME280;74045;42.812;74.638;2024-01-25T10:34:17;90620.03;;;7.43;51.42
83896;BME280;74045;42.812;74.638;2024-01-25T10:36:44;90623.03;;;7.45;51.58
83896;BME280;74045;42.812;74.638;2024-01-25T10:39:09;90633.53;;;7.45;51.98
83896;BME280;74045;42.812;74.638;2024-01-25T10:41:36;90626.09;;;7.40;52.06
83896;BME280;74045;42.812;74.638;2024-01-25T10:44:04;90621.63;;;7.37;52.10
83896;BME280;74045;42.812;74.638;2024-01-25T10:46:32;90607.84;;;7.26;52.79
83896;BME280;74045;42.812;74.638;2024-01-25T10:48:59;90565.47;;;6.89;52.56
83896;BME280;74045;42.812;74.638;2024-01-25T10:51:27;90629.50;;;7.37;52.81
83896;BME280;74045;42.812;74.638;2024-01-25T10:53:53;90624.63;;;7.35;52.68
83896;BME280;74045;42.812;74.638;2024-01-25T10:56:20;90628.41;;;7.34;52.88
83896;BME280;74045;42.812;74.638;2024-01-25T10:58:46;90633.66;;;7.34;52.83
83896;BME280;74045;42.812;74.638;2024-01-25T11:01:12;90635.13;;;7.35;52.90
83896;BME280;74045;42.812;74.638;2024-01-25T11:03:40;90616.53;;;7.19;53.08
83896;BME280;74045;42.812;74.638;2024-01-25T11:06:11;90630.72;;;7.29;52.92
83896;BME280;74045;42.812;74.638;2024-01-25T11:08:37;90635.25;;;7.25;53.40
83896;BME280;74045;42.812;74.638;2024-01-25T11:11:08;90616.66;;;7.08;53.54
83896;BME280;74045;42.812;74.638;2024-01-25T11:13:38;90646.63;;;7.14;53.53
83896;BME280;74045;42.812;74.638;2024-01-25T11:16:18;90645.47;;;7.15;53.50
83896;BME280;74045;42.812;74.638;2024-01-25T11:18:54;90630.13;;;7.10;53.62
83896;BME280;74045;42.812;74.638;2024-01-25T11:21:39;90639.13;;;7.13;53.50
83896;BME280;74045;42.812;74.638;2024-01-25T11:24:05;90565.47;;;6.48;53.65
83896;BME280;74045;42.812;74.638;2024-01-25T11:26:34;90647.47;;;7.04;53.79
83896;BME280;74045;42.812;74.638;2024-01-25T11:29:00;90641.53;;;6.97;53.67
83896;BME280;74045;42.812;74.638;2024-01-25T11:31:27;90615.13;;;6.73;54.07
83896;BME280;74045;42.812;74.638;2024-01-25T11:33:57;90658.81;;;6.94;54.71
83896;BME280;74045;42.812;74.638;2024-01-25T11:36:24;90634.97;;;6.74;54.66
83896;BME280;74045;42.812;74.638;2024-01-25T11:38:50;90668.59;;;6.90;54.81
83896;BME280;74045;42.812;74.638;2024-01-25T11:41:16;90662.25;;;6.87;54.77
83896;BME280;74045;42.812;74.638;2024-01-25T11:43:42;90674.66;;;6.83;54.85
83896;BME280;74045;42.812;74.638;2024-01-25T11:46:08;90666.16;;;6.68;55.13
83896;BME280;74045;42.812;74.638;2024-01-25T11:48:38;90682.22;;;6.74;55.07
83896;BME280;74045;42.812;74.638;2024-01-25T11:51:03;90691.25;;;6.73;55.44
83896;BME280;74045;42.812;74.638;2024-01-25T11:53:29;90629.72;;;6.29;55.18
83896;BME280;74045;42.812;74.638;2024-01-25T11:55:55;90691.28;;;6.66;55.06
83896;BME280;74045;42.812;74.638;2024-01-25T11:58:22;90696.56;;;6.62;55.85
83896;BME280;74045;42.812;74.638;2024-01-25T12:00:48;90675.72;;;6.41;55.88
83896;BME280;74045;42.812;74.638;2024-01-25T12:03:14;90624.31;;;5.95;55.75
83896;BME280;74045;42.812;74.638;2024-01-25T12:05:41;90711.66;;;6.44;56.02
83896;BME280;74045;42.812;74.638;2024-01-25T12:08:13;90676.63;;;6.16;55.99
83896;BME280;74045;42.812;74.638;2024-01-25T12:10:39;90706.50;;;6.37;55.83
83896;BME280;74045;42.812;74.638;2024-01-25T12:13:08;90702.34;;;6.36;55.65
83896;BME280;74045;42.812;74.638;2024-01-25T12:15:35;90717.75;;;6.34;55.97
83896;BME280;74045;42.812;74.638;2024-01-25T12:18:01;90703.56;;;6.20;55.51
83896;BME280;74045;42.812;74.638;2024-01-25T12:20:28;90713.28;;;6.31;55.48
83896;BME280;74045;42.812;74.638;2024-01-25T12:22:54;90715.91;;;6.31;55.64
83896;BME280;74045;42.812;74.638;2024-01-25T12:25:19;90675.59;;;6.03;55.11
83896;BME280;74045;42.812;74.638;2024-01-25T12:27:47;90721.09;;;6.38;55.17
83896;BME280;74045;42.812;74.638;2024-01-25T12:30:15;90668.50;;;6.00;55.59
83896;BME280;74045;42.812;74.638;2024-01-25T12:32:41;90721.84;;;6.35;54.85
83896;BME280;74045;42.812;74.638;2024-01-25T12:35:07;90734.94;;;6.42;55.49
83896;BME280;74045;42.812;74.638;2024-01-25T12:37:35;90737.91;;;6.44;55.29
83896;BME280;74045;42.812;74.638;2024-01-25T12:40:01;90739.41;;;6.45;55.32
83896;BME280;74045;42.812;74.638;2024-01-25T12:42:27;90742.78;;;6.45;55.25
83896;BME280;74045;42.812;74.638;2024-01-25T12:44:53;90736.47;;;6.39;55.09
83896;BME280;74045;42.812;74.638;2024-01-25T12:47:20;90747.66;;;6.47;54.93
83896;BME280;74045;42.812;74.638;2024-01-25T12:49:45;90766.38;;;6.49;55.10
83896;BME280;74045;42.812;74.638;2024-01-25T12:52:13;90764.88;;;6.48;55.76
83896;BME280;74045;42.812;74.638;2024-01-25T12:54:39;90766.78;;;6.47;56.20
83896;BME280;74045;42.812;74.638;2024-01-25T12:57:06;90772.38;;;6.46;56.30
83896;BME280;74045;42.812;74.638;2024-01-25T12:59:35;90770.94;;;6.38;56.14